Etusivu
METAR-TAF:

METAR-TAF

Lentoasemat :

Farnborough, Englanti

Leveyspiiri: 51-17N, Pituuspiiri: 000-46W, korkeus merenpinnasta: 65 m

Tämänhetkinen sää

Tämä raportti tehtiin 30 minuuttia sitten, kello 16.20 UTC
Tuuli 3 kn eri suunnista
Lämpötila -2°C
Kosteus 93%
Ilmanpaine 1023 hPa
Näkyvyys: 8000 m
Muutamia pilviä 4600 ft:n korkeudessa

METAR: EGLF 141620Z VRB03KT 8000 FEW046 M02/M03 Q1023

Aika: 16:50 (16:50 UTC)

Sääennuste

Tämä raportti tehtiin 49 minuuttia sitten, kello 16.01 UTC
Ennuste voimassa 14. päivästä klo 16 UTC - 14. päivään klo 22 UTC
Tuuli 3 kn idästä
Näkyvyys 10 km tai enemmän
Hajonneita pilviä 4000 ft:n korkeudessa
Ajoittain
14. päivästä klo 16 UTC - 14. päivään klo 22 UTC
Näkyvyys: 9000 m

TAF: EGLF 141601Z 1416/1422 09003KT 9999 BKN040 TEMPO 1416/1422 9000

Säähavainnot ja -ennusteet yli 4000 lentoasemalta (METAR- ja TAF-raportit).

Käytössä olevat sääasemat on merkitty karttaan keltaisilla ja punaisilla pisteillä.

Aseta hiiri pisteen päälle nähdäksesi sääaseman nimen.

Klikkaa sitten nähdäksesi säähavainnot ja -ennusteet.

Kartan vaihtaminen: klikkaa mustalla rastilla varustettuja vihreitä pisteitä, niin voit zoomata sisään; viivalla varustettua vihreää pistettä, niin voit zoomata ulos tai vihreitä nuolia, niin pääset viereisille kartoille.


METAR-TAF: